Time;durP1;ratioP1;P1;durP2;ratioP2;P2;SDS_P1;SDS_P2;PMS_P1;PMS_P2;Temp;Humidity;BMP_temperature;BMP_pressure;BME280_temperature;BME280_humidity;BME280_pressure;Samples;Min_cycle;Max_cycle;Signal;HPM_P1;HPM_P2
2020/12/20 00:00:53;;;;;;;11.50;7.50;;;;;;;;;;5033073;28;20053;-83
2020/12/20 00:03:19;;;;;;;12.15;8.00;;;;;;;;;;5044465;28;20060;-84
2020/12/20 00:05:46;;;;;;;9.95;6.40;;;;;;;;;;5041943;28;20510;-84
2020/12/20 00:08:12;;;;;;;10.07;6.50;;;;;;;;;;5034551;28;20049;-84
2020/12/20 00:10:38;;;;;;;14.13;8.07;;;;;;;;;;5035353;28;20059;-84
2020/12/20 00:13:04;;;;;;;13.73;8.30;;;;;;;;;;5039407;28;20192;-84
2020/12/20 00:15:30;;;;;;;12.63;7.13;;;;;;;;;;5042750;28;20044;-83
2020/12/20 00:17:56;;;;;;;10.48;6.55;;;;;;;;;;5034788;28;20068;-82
2020/12/20 00:20:22;;;;;;;12.52;7.95;;;;;;;;;;5045189;28;20448;-84
2020/12/20 00:22:49;;;;;;;13.95;7.45;;;;;;;;;;5047182;28;20053;-84
2020/12/20 00:25:15;;;;;;;10.82;7.35;;;;;;;;;;5036673;28;20065;-83
2020/12/20 00:27:42;;;;;;;10.30;6.80;;;;;;;;;;5035430;28;20054;-84
2020/12/20 00:30:08;;;;;;;8.88;6.03;;;;;;;;;;5036897;28;20066;-83
2020/12/20 00:32:34;;;;;;;9.20;5.97;;;;;;;;;;5031346;28;20059;-84
2020/12/20 00:35:01;;;;;;;11.13;7.15;;;;;;;;;;5035958;28;20045;-84
2020/12/20 00:37:27;;;;;;;12.00;6.82;;;;;;;;;;5034609;28;20048;-85
2020/12/20 00:39:53;;;;;;;10.88;6.38;;;;;;;;;;5035047;28;20491;-85
2020/12/20 00:42:19;;;;;;;11.88;6.57;;;;;;;;;;5037750;28;20045;-84
2020/12/20 00:44:46;;;;;;;10.32;6.30;;;;;;;;;;5041447;28;20497;-84
2020/12/20 00:47:12;;;;;;;10.40;6.10;;;;;;;;;;5034883;28;20056;-87
2020/12/20 00:49:38;;;;;;;9.48;5.97;;;;;;;;;;5039472;28;20049;-88
2020/12/20 00:52:05;;;;;;;9.68;6.18;;;;;;;;;;5035079;28;20475;-87
2020/12/20 00:54:31;;;;;;;11.43;6.28;;;;;;;;;;5039293;28;20055;-86
2020/12/20 00:56:57;;;;;;;12.30;6.55;;;;;;;;;;5036366;28;20048;-83
2020/12/20 00:59:23;;;;;;;8.65;5.88;;;;;;;;;;5041007;28;20040;-85
2020/12/20 01:01:50;;;;;;;7.38;5.65;;;;;;;;;;5034375;28;20426;-80
2020/12/20 01:04:25;;;;;;;8.80;5.28;;;;;;;;;;5033485;28;20044;-84
2020/12/20 01:06:56;;;;;;;9.23;5.80;;;;;;;;;;5039087;28;20053;-87
2020/12/20 01:09:27;;;;;;;9.00;5.57;;;;;;;;;;5039583;28;20045;-83
2020/12/20 01:11:56;;;;;;;11.07;5.90;;;;;;;;;;5037404;28;20068;-82
2020/12/20 01:14:23;;;;;;;8.75;5.35;;;;;;;;;;5039809;28;20048;-82
2020/12/20 01:16:49;;;;;;;8.63;5.28;;;;;;;;;;5042527;28;20045;-82
2020/12/20 01:19:15;;;;;;;9.02;5.25;;;;;;;;;;5034415;28;20486;-79
2020/12/20 01:21:41;;;;;;;9.32;5.65;;;;;;;;;;5035427;28;20052;-83
2020/12/20 01:24:07;;;;;;;13.90;6.35;;;;;;;;;;5036741;28;20063;-79
2020/12/20 01:26:33;;;;;;;10.70;6.50;;;;;;;;;;5036066;28;20045;-79
2020/12/20 01:28:59;;;;;;;16.70;6.75;;;;;;;;;;5035210;28;20543;-79
2020/12/20 01:31:25;;;;;;;12.98;6.78;;;;;;;;;;5040177;28;20052;-79
2020/12/20 01:33:51;;;;;;;16.38;5.80;;;;;;;;;;5033578;28;20068;-79
2020/12/20 01:36:18;;;;;;;13.63;6.60;;;;;;;;;;5043744;28;20070;-78
2020/12/20 01:38:44;;;;;;;9.57;6.00;;;;;;;;;;5042281;28;20044;-78
2020/12/20 01:41:10;;;;;;;20.25;6.38;;;;;;;;;;5030880;28;20046;-79
2020/12/20 01:43:46;;;;;;;11.00;6.90;;;;;;;;;;5041738;28;20096;-79
2020/12/20 01:46:14;;;;;;;10.98;5.40;;;;;;;;;;5041775;28;20378;-79
2020/12/20 01:48:41;;;;;;;11.07;6.20;;;;;;;;;;5039986;28;20074;-79
2020/12/20 01:51:07;;;;;;;10.23;6.55;;;;;;;;;;5033338;28;20045;-79
2020/12/20 01:53:34;;;;;;;11.55;6.88;;;;;;;;;;5037762;28;20423;-79
2020/12/20 01:56:02;;;;;;;10.57;5.75;;;;;;;;;;5035781;28;20049;-79
2020/12/20 01:58:28;;;;;;;7.30;5.43;;;;;;;;;;5038464;28;20398;-79
2020/12/20 02:00:58;;;;;;;10.10;5.93;;;;;;;;;;5038998;28;20048;-79
2020/12/20 02:03:24;;;;;;;9.13;5.85;;;;;;;;;;5039596;28;20053;-79
2020/12/20 02:05:51;;;;;;;10.05;6.03;;;;;;;;;;5037119;28;20045;-78
2020/12/20 02:08:18;;;;;;;11.02;6.25;;;;;;;;;;5043258;28;20048;-77
2020/12/20 02:10:44;;;;;;;10.68;6.00;;;;;;;;;;5038927;28;20430;-78
2020/12/20 02:13:10;;;;;;;9.93;6.03;;;;;;;;;;5038703;28;20041;-79
2020/12/20 02:15:36;;;;;;;11.27;6.68;;;;;;;;;;5033109;28;20048;-79
2020/12/20 02:18:02;;;;;;;10.07;6.13;;;;;;;;;;5032032;28;20042;-79
2020/12/20 02:20:29;;;;;;;10.40;6.10;;;;;;;;;;5042714;28;20056;-79
2020/12/20 02:22:57;;;;;;;9.73;6.05;;;;;;;;;;5038281;28;20045;-79
2020/12/20 02:25:24;;;;;;;12.88;6.22;;;;;;;;;;5040162;28;20049;-79
2020/12/20 02:27:51;;;;;;;10.00;6.45;;;;;;;;;;5039403;28;20568;-79
2020/12/20 02:30:17;;;;;;;9.75;5.43;;;;;;;;;;5034833;28;20045;-79
2020/12/20 02:32:43;;;;;;;8.30;5.68;;;;;;;;;;5038807;28;20060;-80
2020/12/20 02:35:09;;;;;;;14.52;6.80;;;;;;;;;;5040480;28;20064;-80
2020/12/20 02:37:35;;;;;;;10.38;5.63;;;;;;;;;;5038906;28;20513;-79
2020/12/20 02:40:03;;;;;;;14.10;6.43;;;;;;;;;;5039382;28;20053;-79
2020/12/20 02:42:29;;;;;;;11.55;5.93;;;;;;;;;;5039854;28;20062;-80
2020/12/20 02:44:56;;;;;;;10.50;6.18;;;;;;;;;;5036028;28;20510;-79
2020/12/20 02:47:23;;;;;;;9.35;5.95;;;;;;;;;;5039879;28;20510;-79
2020/12/20 02:49:49;;;;;;;11.05;6.18;;;;;;;;;;5040625;28;20048;-79
2020/12/20 02:52:15;;;;;;;10.18;5.03;;;;;;;;;;5042012;28;20055;-79
2020/12/20 02:54:41;;;;;;;13.68;5.28;;;;;;;;;;5041577;28;20076;-79
2020/12/20 02:57:07;;;;;;;12.23;6.35;;;;;;;;;;5038858;28;20048;-78
2020/12/20 02:59:33;;;;;;;10.07;5.63;;;;;;;;;;5043772;28;20045;-80
2020/12/20 03:02:00;;;;;;;8.93;5.38;;;;;;;;;;5037401;28;20099;-79
2020/12/20 03:04:26;;;;;;;10.30;6.13;;;;;;;;;;5037117;28;20049;-79
2020/12/20 03:06:52;;;;;;;9.13;6.10;;;;;;;;;;5042548;28;20041;-79
2020/12/20 03:09:19;;;;;;;7.60;5.13;;;;;;;;;;5042491;28;20056;-79
2020/12/20 03:11:45;;;;;;;8.25;5.50;;;;;;;;;;5040621;28;20049;-79
2020/12/20 03:14:20;;;;;;;8.75;5.45;;;;;;;;;;5037249;28;20388;-80
2020/12/20 03:16:47;;;;;;;8.73;5.35;;;;;;;;;;5044077;28;20498;-79
2020/12/20 03:19:13;;;;;;;8.65;5.05;;;;;;;;;;5038448;28;20049;-79
2020/12/20 03:21:39;;;;;;;9.57;5.05;;;;;;;;;;5036875;28;20045;-79
2020/12/20 03:24:05;;;;;;;7.65;4.68;;;;;;;;;;5042546;28;20668;-79
2020/12/20 03:26:32;;;;;;;8.27;4.97;;;;;;;;;;5039342;28;20045;-79
2020/12/20 03:28:58;;;;;;;9.00;5.40;;;;;;;;;;5048191;28;20056;-79
2020/12/20 03:31:24;;;;;;;8.27;5.40;;;;;;;;;;5041982;28;20041;-79
2020/12/20 03:33:50;;;;;;;9.20;5.13;;;;;;;;;;5039255;28;20049;-80
2020/12/20 03:36:17;;;;;;;9.73;4.88;;;;;;;;;;5038002;28;20048;-78
2020/12/20 03:38:43;;;;;;;6.78;4.60;;;;;;;;;;5041489;28;20045;-80
2020/12/20 03:41:09;;;;;;;7.07;4.93;;;;;;;;;;5041112;28;20045;-80
2020/12/20 03:43:35;;;;;;;8.77;5.10;;;;;;;;;;5041942;28;20045;-80
2020/12/20 03:46:02;;;;;;;8.43;5.05;;;;;;;;;;5045989;28;20045;-78
2020/12/20 03:48:28;;;;;;;7.95;4.95;;;;;;;;;;5041115;28;20048;-79
2020/12/20 03:51:12;;;;;;;9.40;4.90;;;;;;;;;;5039448;28;20041;-78
2020/12/20 03:53:38;;;;;;;10.23;5.07;;;;;;;;;;5035031;28;20045;-78
2020/12/20 03:56:07;;;;;;;8.10;4.85;;;;;;;;;;5038215;28;20072;-78
2020/12/20 03:58:33;;;;;;;8.47;5.13;;;;;;;;;;5035869;28;20045;-78
2020/12/20 04:01:00;;;;;;;9.50;5.53;;;;;;;;;;5042136;28;20659;-78
2020/12/20 04:03:26;;;;;;;11.48;5.30;;;;;;;;;;5042406;28;20041;-79
2020/12/20 04:05:53;;;;;;;5.78;3.88;;;;;;;;;;5037472;28;20046;-80
2020/12/20 04:08:19;;;;;;;9.45;5.35;;;;;;;;;;5038079;28;20056;-79
2020/12/20 04:10:48;;;;;;;7.72;4.18;;;;;;;;;;5042060;28;20056;-80
2020/12/20 04:13:14;;;;;;;8.65;4.22;;;;;;;;;;5041014;28;20506;-81
2020/12/20 04:15:42;;;;;;;7.82;4.72;;;;;;;;;;5042077;28;20546;-79
2020/12/20 04:18:08;;;;;;;15.57;5.20;;;;;;;;;;5040295;28;20049;-79
2020/12/20 04:20:34;;;;;;;6.90;5.00;;;;;;;;;;5043828;28;20402;-80
2020/12/20 04:23:01;;;;;;;7.18;4.28;;;;;;;;;;5037466;28;20056;-80
2020/12/20 04:25:27;;;;;;;7.75;4.20;;;;;;;;;;5037269;28;20496;-79
2020/12/20 04:27:53;;;;;;;8.10;4.47;;;;;;;;;;5037739;28;20056;-77
2020/12/20 04:30:19;;;;;;;7.63;4.55;;;;;;;;;;5037737;28;20509;-78
2020/12/20 04:32:45;;;;;;;7.03;4.25;;;;;;;;;;5042388;28;20057;-79
2020/12/20 04:35:11;;;;;;;7.43;5.05;;;;;;;;;;5038978;28;20046;-79
2020/12/20 04:37:38;;;;;;;7.35;5.40;;;;;;;;;;5040915;28;20060;-79
2020/12/20 04:40:07;;;;;;;8.70;4.43;;;;;;;;;;5035287;28;20051;-79
2020/12/20 04:42:33;;;;;;;7.18;4.30;;;;;;;;;;5041974;28;20496;-78
2020/12/20 04:44:59;;;;;;;6.65;3.78;;;;;;;;;;5038525;28;20053;-80
2020/12/20 04:47:26;;;;;;;8.18;3.90;;;;;;;;;;5046073;28;20691;-79
2020/12/20 04:49:52;;;;;;;8.82;4.80;;;;;;;;;;5035846;28;20085;-79
2020/12/20 04:52:19;;;;;;;8.05;4.28;;;;;;;;;;5039353;28;20049;-80
2020/12/20 04:54:45;;;;;;;7.38;3.95;;;;;;;;;;5042906;28;20096;-80
2020/12/20 04:57:15;;;;;;;9.88;4.22;;;;;;;;;;5034695;28;20045;-80
2020/12/20 04:59:42;;;;;;;7.53;3.92;;;;;;;;;;5036716;28;20054;-80
2020/12/20 05:02:11;;;;;;;6.85;4.18;;;;;;;;;;5036546;28;20077;-80
2020/12/20 05:04:37;;;;;;;8.37;4.63;;;;;;;;;;5039325;28;20054;-80
2020/12/20 05:07:04;;;;;;;8.15;4.05;;;;;;;;;;5031807;28;20051;-80
2020/12/20 05:09:30;;;;;;;7.97;3.92;;;;;;;;;;5039575;28;20045;-79
2020/12/20 05:11:57;;;;;;;7.47;4.20;;;;;;;;;;5042564;28;20049;-80
2020/12/20 05:14:30;;;;;;;6.45;3.85;;;;;;;;;;5033484;28;20415;-80
2020/12/20 05:16:56;;;;;;;5.57;4.15;;;;;;;;;;5035069;28;20204;-81
2020/12/20 05:19:30;;;;;;;5.32;3.42;;;;;;;;;;5037476;28;20067;-80
2020/12/20 05:22:15;;;;;;;6.68;3.90;;;;;;;;;;5038352;28;20047;-85
2020/12/20 05:24:50;;;;;;;7.03;3.80;;;;;;;;;;5034603;28;20090;-82
2020/12/20 05:27:23;;;;;;;6.45;4.03;;;;;;;;;;5042170;28;20052;-80
2020/12/20 05:29:49;;;;;;;8.77;4.20;;;;;;;;;;5042718;28;20124;-81
2020/12/20 05:32:29;;;;;;;7.95;4.40;;;;;;;;;;5035066;28;20041;-80
2020/12/20 05:35:02;;;;;;;6.57;4.43;;;;;;;;;;5036936;28;20071;-80
2020/12/20 05:37:32;;;;;;;6.13;3.58;;;;;;;;;;5035786;28;20116;-80
2020/12/20 05:39:58;;;;;;;7.07;4.03;;;;;;;;;;5033755;28;20045;-80
2020/12/20 05:42:24;;;;;;;8.50;3.67;;;;;;;;;;5036143;28;20052;-83
2020/12/20 05:45:03;;;;;;;6.63;3.85;;;;;;;;;;5033641;28;20045;-82
2020/12/20 05:47:29;;;;;;;6.25;3.75;;;;;;;;;;5037558;28;20049;-81
2020/12/20 05:49:55;;;;;;;5.40;3.67;;;;;;;;;;5037789;28;20091;-80
2020/12/20 05:52:26;;;;;;;5.35;3.15;;;;;;;;;;5039365;28;20052;-80
2020/12/20 05:54:52;;;;;;;7.68;3.70;;;;;;;;;;5031793;28;20053;-81
2020/12/20 05:57:19;;;;;;;6.05;3.75;;;;;;;;;;5035930;28;20503;-82
2020/12/20 05:59:50;;;;;;;5.60;3.47;;;;;;;;;;5039861;28;20053;-81
2020/12/20 06:02:16;;;;;;;6.28;3.65;;;;;;;;;;5034827;28;20057;-81
2020/12/20 06:04:44;;;;;;;6.13;3.63;;;;;;;;;;5034060;28;20506;-80
2020/12/20 06:07:11;;;;;;;5.95;3.83;;;;;;;;;;5038060;28;20045;-83
2020/12/20 06:09:49;;;;;;;8.02;3.75;;;;;;;;;;5038688;28;20143;-81
2020/12/20 06:12:17;;;;;;;5.57;3.55;;;;;;;;;;5034416;28;20050;-83
2020/12/20 06:14:44;;;;;;;6.15;4.07;;;;;;;;;;5031254;28;20718;-83
2020/12/20 06:17:14;;;;;;;4.50;3.38;;;;;;;;;;5036995;28;20398;-85
2020/12/20 06:19:51;;;;;;;6.10;3.20;;;;;;;;;;5039171;28;20076;-81
2020/12/20 06:22:21;;;;;;;8.25;3.35;;;;;;;;;;5034045;28;20045;-81
2020/12/20 06:24:48;;;;;;;5.15;3.22;;;;;;;;;;5040903;28;20052;-82
2020/12/20 06:27:18;;;;;;;7.38;3.33;;;;;;;;;;5033485;28;20414;-82
2020/12/20 06:29:46;;;;;;;5.68;3.50;;;;;;;;;;5035835;28;20045;-83
2020/12/20 06:32:15;;;;;;;6.05;3.58;;;;;;;;;;5040921;28;20425;-83
2020/12/20 06:34:42;;;;;;;10.48;3.60;;;;;;;;;;5038169;28;20064;-82
2020/12/20 06:37:09;;;;;;;4.38;2.67;;;;;;;;;;5035441;28;20049;-82
2020/12/20 06:39:37;;;;;;;6.43;3.58;;;;;;;;;;5034955;28;20509;-81
2020/12/20 06:42:03;;;;;;;4.68;3.08;;;;;;;;;;5042189;28;20045;-79
2020/12/20 06:44:29;;;;;;;6.18;3.30;;;;;;;;;;5038450;28;20073;-74
2020/12/20 06:46:55;;;;;;;5.72;3.03;;;;;;;;;;5030481;28;20046;-83
2020/12/20 06:49:32;;;;;;;4.93;3.30;;;;;;;;;;5037086;28;20770;-81
2020/12/20 06:52:17;;;;;;;4.32;2.72;;;;;;;;;;5037336;28;20421;-82
2020/12/20 06:55:05;;;;;;;5.05;3.30;;;;;;;;;;5037595;28;20161;-81
2020/12/20 06:57:32;;;;;;;5.03;2.88;;;;;;;;;;5032827;28;20057;-83
2020/12/20 06:59:58;;;;;;;5.13;3.60;;;;;;;;;;5033724;28;20049;-84
2020/12/20 07:02:39;;;;;;;8.43;4.10;;;;;;;;;;5035827;28;20052;-83
2020/12/20 07:05:05;;;;;;;4.97;3.13;;;;;;;;;;5036817;28;20063;-81
2020/12/20 07:07:31;;;;;;;4.78;3.63;;;;;;;;;;5045763;28;20060;-82
2020/12/20 07:09:57;;;;;;;5.80;3.25;;;;;;;;;;5038964;28;20068;-82
2020/12/20 07:12:47;;;;;;;6.50;3.10;;;;;;;;;;5039909;28;20053;-81
2020/12/20 07:15:33;;;;;;;4.32;2.97;;;;;;;;;;5034334;28;20415;-80
2020/12/20 07:17:59;;;;;;;6.25;3.42;;;;;;;;;;5039210;28;20051;-81
2020/12/20 07:20:33;;;;;;;7.18;3.22;;;;;;;;;;5036338;28;20425;-83
2020/12/20 07:22:59;;;;;;;6.15;3.83;;;;;;;;;;5039219;28;20148;-86
2020/12/20 07:25:26;;;;;;;5.40;3.25;;;;;;;;;;5045991;28;20053;-81
2020/12/20 07:27:52;;;;;;;5.45;3.05;;;;;;;;;;5040248;28;20049;-81
2020/12/20 07:30:19;;;;;;;7.18;3.72;;;;;;;;;;5037893;28;20471;-87
2020/12/20 07:32:45;;;;;;;5.88;3.40;;;;;;;;;;5034958;28;20050;-82
2020/12/20 07:35:14;;;;;;;11.30;3.80;;;;;;;;;;5039460;28;20061;-80
2020/12/20 07:37:52;;;;;;;4.57;2.55;;;;;;;;;;5036822;28;20045;-76
2020/12/20 07:40:21;;;;;;;5.45;3.22;;;;;;;;;;5042428;28;20072;-75
2020/12/20 07:42:47;;;;;;;8.30;3.30;;;;;;;;;;5040703;28;20052;-77
2020/12/20 07:45:13;;;;;;;5.47;3.15;;;;;;;;;;5041301;28;20053;-78
2020/12/20 07:47:49;;;;;;;3.88;2.60;;;;;;;;;;5036492;28;20053;-74
2020/12/20 07:50:24;;;;;;;5.35;3.20;;;;;;;;;;5036802;28;20049;-77
2020/12/20 07:52:50;;;;;;;6.03;2.83;;;;;;;;;;5037094;28;20442;-76
2020/12/20 07:55:16;;;;;;;8.50;3.63;;;;;;;;;;5034397;28;20053;-76
2020/12/20 07:57:45;;;;;;;6.05;2.72;;;;;;;;;;5040666;28;20103;-75
2020/12/20 08:00:11;;;;;;;3.85;2.38;;;;;;;;;;5042945;28;20042;-74
2020/12/20 08:02:38;;;;;;;6.45;2.92;;;;;;;;;;5044454;28;20049;-74
2020/12/20 08:05:11;;;;;;;3.72;2.53;;;;;;;;;;5038328;28;20037;-75
2020/12/20 08:07:37;;;;;;;4.28;3.17;;;;;;;;;;5036083;28;20056;-74
2020/12/20 08:10:04;;;;;;;6.53;2.78;;;;;;;;;;5039089;28;20045;-76
2020/12/20 08:12:32;;;;;;;4.72;2.58;;;;;;;;;;5040349;28;20049;-76
2020/12/20 08:15:01;;;;;;;8.05;3.13;;;;;;;;;;5039369;28;20049;-76
2020/12/20 08:17:28;;;;;;;3.72;2.45;;;;;;;;;;5038248;28;20055;-77
2020/12/20 08:19:54;;;;;;;4.47;2.50;;;;;;;;;;5040147;28;20045;-76
2020/12/20 08:22:22;;;;;;;4.68;2.13;;;;;;;;;;5034530;28;20147;-76
2020/12/20 08:24:48;;;;;;;5.80;2.50;;;;;;;;;;5034064;28;20505;-76
2020/12/20 08:27:19;;;;;;;5.15;2.55;;;;;;;;;;5039018;28;20048;-79
2020/12/20 08:29:45;;;;;;;;;;;;;;;;;;5033363;28;20057;-73
2020/12/20 08:32:14;;;;;;;4.30;2.53;;;;;;;;;;5037182;28;19929;-77
2020/12/20 08:34:41;;;;;;;4.20;2.83;;;;;;;;;;5038572;28;20056;-76
2020/12/20 08:37:08;;;;;;;6.03;2.53;;;;;;;;;;5036254;28;20045;-78
2020/12/20 08:39:34;;;;;;;6.13;2.28;;;;;;;;;;5034672;28;20060;-74
2020/12/20 08:42:08;;;;;;;6.10;2.72;;;;;;;;;;5036144;28;20059;-75
2020/12/20 08:44:36;;;;;;;5.20;2.55;;;;;;;;;;5038758;28;20053;-75
2020/12/20 08:47:07;;;;;;;5.32;2.78;;;;;;;;;;5037095;28;20052;-76
2020/12/20 08:49:33;;;;;;;4.03;2.47;;;;;;;;;;5035607;28;20045;-76
2020/12/20 08:52:06;;;;;;;6.30;3.10;;;;;;;;;;5044753;28;20045;-75
2020/12/20 08:54:32;;;;;;;4.53;2.30;;;;;;;;;;5040310;28;20730;-75
2020/12/20 08:57:06;;;;;;;4.28;2.65;;;;;;;;;;5033332;28;20052;-75
2020/12/20 08:59:41;;;;;;;5.22;2.47;;;;;;;;;;5044750;28;20072;-75
2020/12/20 09:02:08;;;;;;;6.28;2.50;;;;;;;;;;5032365;28;20047;-74
2020/12/20 09:04:35;;;;;;;4.22;2.95;;;;;;;;;;5040608;28;20048;-75
2020/12/20 09:07:06;;;;;;;5.22;3.00;;;;;;;;;;5039567;28;20037;-75
2020/12/20 09:09:32;;;;;;;6.30;2.47;;;;;;;;;;5037903;28;20053;-76
2020/12/20 09:12:12;;;;;;;4.68;2.70;;;;;;;;;;5033982;28;20053;-76
2020/12/20 09:14:38;;;;;;;5.63;2.90;;;;;;;;;;5044255;28;20044;-75
2020/12/20 09:17:04;;;;;;;4.75;2.55;;;;;;;;;;5035949;28;20056;-75
2020/12/20 09:19:31;;;;;;;4.70;2.88;;;;;;;;;;5041718;28;20130;-75
2020/12/20 09:21:57;;;;;;;3.88;2.40;;;;;;;;;;5040542;28;20045;-75
2020/12/20 09:24:46;;;;;;;5.53;2.40;;;;;;;;;;5038648;28;20053;-75
2020/12/20 09:27:16;;;;;;;5.75;2.17;;;;;;;;;;5036877;28;20050;-84
2020/12/20 09:29:49;;;;;;;3.38;2.47;;;;;;;;;;5034357;28;20041;-83
2020/12/20 09:32:15;;;;;;;7.07;2.35;;;;;;;;;;5034615;28;20049;-77
2020/12/20 09:34:42;;;;;;;5.75;2.17;;;;;;;;;;5035875;28;20081;-75
2020/12/20 09:37:08;;;;;;;4.25;2.03;;;;;;;;;;5032560;28;20048;-76
2020/12/20 09:39:53;;;;;;;4.03;2.47;;;;;;;;;;5033961;28;20068;-77
2020/12/20 09:42:20;;;;;;;5.25;2.22;;;;;;;;;;5036662;28;20507;-75
2020/12/20 09:44:49;;;;;;;3.58;2.33;;;;;;;;;;5039787;28;20049;-73
2020/12/20 09:47:21;;;;;;;4.28;2.42;;;;;;;;;;5034990;28;20434;-75
2020/12/20 09:49:47;;;;;;;7.07;3.20;;;;;;;;;;5038273;28;20045;-79
2020/12/20 09:52:13;;;;;;;6.95;3.35;;;;;;;;;;5036185;28;20410;-82
2020/12/20 09:54:57;;;;;;;5.65;2.42;;;;;;;;;;5034578;28;20053;-79
2020/12/20 09:57:26;;;;;;;6.03;2.57;;;;;;;;;;5039309;28;20045;-77
2020/12/20 09:59:53;;;;;;;4.85;3.10;;;;;;;;;;5038997;28;20051;-80
2020/12/20 10:02:20;;;;;;;8.02;3.17;;;;;;;;;;5035563;28;20049;-78
2020/12/20 10:04:46;;;;;;;5.93;2.92;;;;;;;;;;5034115;28;20134;-82
2020/12/20 10:07:12;;;;;;;5.30;3.55;;;;;;;;;;5037064;28;20144;-77
2020/12/20 10:09:39;;;;;;;5.65;2.85;;;;;;;;;;5031200;28;20462;-79
2020/12/20 10:12:06;;;;;;;5.30;3.53;;;;;;;;;;5034027;28;20049;-77
2020/12/20 10:14:33;;;;;;;13.35;3.75;;;;;;;;;;5034491;28;20383;-75
2020/12/20 10:16:59;;;;;;;9.18;3.05;;;;;;;;;;5036240;28;20057;-74
2020/12/20 10:19:25;;;;;;;8.65;3.28;;;;;;;;;;5036314;28;20383;-77
2020/12/20 10:21:52;;;;;;;4.55;2.65;;;;;;;;;;5036970;28;20049;-76
2020/12/20 10:24:19;;;;;;;8.25;3.30;;;;;;;;;;5041077;28;20051;-74
2020/12/20 10:26:45;;;;;;;8.93;3.03;;;;;;;;;;5031038;28;20041;-75
2020/12/20 10:29:14;;;;;;;8.60;2.95;;;;;;;;;;5032052;28;20049;-75
2020/12/20 10:31:41;;;;;;;5.03;3.17;;;;;;;;;;5033362;28;20383;-75
2020/12/20 10:34:07;;;;;;;8.80;3.47;;;;;;;;;;5034064;28;20411;-76
2020/12/20 10:36:34;;;;;;;8.15;3.42;;;;;;;;;;5033236;28;20087;-75
2020/12/20 10:39:01;;;;;;;9.40;3.88;;;;;;;;;;5034862;28;20042;-75
2020/12/20 10:41:52;;;;;;;9.30;4.38;;;;;;;;;;5037113;28;20454;-75
2020/12/20 10:44:20;;;;;;;9.15;3.75;;;;;;;;;;5041999;28;20049;-76
2020/12/20 10:46:52;;;;;;;9.18;3.80;;;;;;;;;;5035046;28;20045;-76
2020/12/20 10:49:21;;;;;;;7.55;3.38;;;;;;;;;;5038429;28;20499;-76
2020/12/20 10:51:54;;;;;;;8.27;3.65;;;;;;;;;;5038655;28;20399;-76
2020/12/20 10:54:28;;;;;;;8.20;3.55;;;;;;;;;;5035047;28;20052;-75
2020/12/20 10:57:01;;;;;;;11.98;3.88;;;;;;;;;;5034473;28;20046;-76
2020/12/20 10:59:29;;;;;;;10.10;3.45;;;;;;;;;;5034787;28;20049;-75
2020/12/20 11:01:56;;;;;;;7.47;3.80;;;;;;;;;;5036276;28;20068;-76
2020/12/20 11:04:25;;;;;;;9.18;3.95;;;;;;;;;;5036488;28;20049;-76
2020/12/20 11:06:55;;;;;;;6.25;3.35;;;;;;;;;;5037914;28;20045;-75
2020/12/20 11:09:21;;;;;;;6.45;2.92;;;;;;;;;;5041841;28;20506;-75
2020/12/20 11:11:47;;;;;;;7.20;3.95;;;;;;;;;;5034795;28;20052;-76
2020/12/20 11:14:16;;;;;;;8.63;3.63;;;;;;;;;;5034230;28;20075;-75
2020/12/20 11:16:42;;;;;;;5.55;2.70;;;;;;;;;;5033973;28;20506;-75
2020/12/20 11:19:13;;;;;;;7.45;3.20;;;;;;;;;;5034726;28;20052;-76
2020/12/20 11:21:40;;;;;;;6.60;3.25;;;;;;;;;;5034283;28;20384;-76
2020/12/20 11:24:06;;;;;;;5.47;2.88;;;;;;;;;;5039031;28;20049;-76
2020/12/20 11:26:35;;;;;;;6.15;3.38;;;;;;;;;;5039012;28;20388;-76
2020/12/20 11:29:01;;;;;;;6.65;2.83;;;;;;;;;;5034330;28;20049;-75
2020/12/20 11:31:29;;;;;;;9.35;3.25;;;;;;;;;;5034192;28;20045;-76
2020/12/20 11:33:55;;;;;;;8.25;3.35;;;;;;;;;;5039191;28;20502;-76
2020/12/20 11:36:23;;;;;;;10.27;3.33;;;;;;;;;;5033903;28;20045;-75
2020/12/20 11:38:50;;;;;;;6.53;3.67;;;;;;;;;;5041373;28;20491;-75
2020/12/20 11:41:23;;;;;;;7.60;2.92;;;;;;;;;;5039390;28;20407;-75
2020/12/20 11:43:49;;;;;;;7.22;3.08;;;;;;;;;;5040921;28;20042;-75
2020/12/20 11:46:17;;;;;;;8.75;3.95;;;;;;;;;;5033626;28;20065;-74
2020/12/20 11:48:44;;;;;;;6.68;3.25;;;;;;;;;;5033632;28;20053;-74
2020/12/20 11:51:10;;;;;;;7.88;3.42;;;;;;;;;;5033260;28;20041;-75
2020/12/20 11:53:37;;;;;;;7.07;2.88;;;;;;;;;;5033539;28;21901;-75
2020/12/20 11:56:14;;;;;;;5.25;3.15;;;;;;;;;;5033158;28;20410;-75
2020/12/20 11:58:44;;;;;;;8.13;2.50;;;;;;;;;;5033415;28;20052;-75
2020/12/20 12:01:10;;;;;;;3.88;2.70;;;;;;;;;;5038686;28;20045;-75
2020/12/20 12:03:36;;;;;;;8.05;2.72;;;;;;;;;;5039412;28;20136;-75
2020/12/20 12:06:03;;;;;;;8.07;2.97;;;;;;;;;;5040703;28;20042;-75
2020/12/20 12:08:32;;;;;;;9.77;3.15;;;;;;;;;;5033088;28;20055;-75
2020/12/20 12:10:58;;;;;;;4.85;3.25;;;;;;;;;;5033281;28;20448;-76
2020/12/20 12:13:24;;;;;;;5.50;2.90;;;;;;;;;;5034838;28;20054;-74
2020/12/20 12:15:51;;;;;;;7.05;2.95;;;;;;;;;;5032770;28;20037;-75
2020/12/20 12:18:18;;;;;;;4.43;2.58;;;;;;;;;;5032788;28;20128;-75
2020/12/20 12:20:44;;;;;;;4.15;2.80;;;;;;;;;;5032539;28;20041;-75
2020/12/20 12:23:10;;;;;;;4.97;2.65;;;;;;;;;;5033706;28;20505;-76
2020/12/20 12:25:42;;;;;;;5.28;2.72;;;;;;;;;;5040308;28;20057;-75
2020/12/20 12:28:10;;;;;;;5.18;2.55;;;;;;;;;;5033289;28;20095;-75
2020/12/20 12:30:37;;;;;;;5.95;2.60;;;;;;;;;;5036182;28;20644;-75
2020/12/20 12:33:03;;;;;;;8.02;3.70;;;;;;;;;;5037866;28;20049;-75
2020/12/20 12:35:29;;;;;;;4.45;2.40;;;;;;;;;;5032613;28;20049;-75
2020/12/20 12:37:55;;;;;;;5.32;2.53;;;;;;;;;;5032618;28;20045;-75
2020/12/20 12:40:21;;;;;;;5.25;2.22;;;;;;;;;;5033165;28;20128;-75
2020/12/20 12:42:48;;;;;;;5.93;3.03;;;;;;;;;;5038963;28;20046;-75
2020/12/20 12:45:17;;;;;;;7.18;2.30;;;;;;;;;;5036186;28;20052;-76
2020/12/20 12:47:43;;;;;;;7.35;2.60;;;;;;;;;;5040752;28;20490;-76
2020/12/20 12:50:09;;;;;;;7.22;2.90;;;;;;;;;;5044037;28;20053;-76
2020/12/20 12:52:36;;;;;;;4.97;2.72;;;;;;;;;;5035160;28;20043;-75
2020/12/20 12:55:03;;;;;;;4.30;2.25;;;;;;;;;;5032209;28;20049;-75
2020/12/20 12:57:31;;;;;;;7.85;2.88;;;;;;;;;;5032638;28;20399;-75
2020/12/20 12:59:58;;;;;;;5.40;2.33;;;;;;;;;;5032539;28;20061;-75
2020/12/20 13:02:24;;;;;;;5.05;2.10;;;;;;;;;;5035982;28;20040;-75
2020/12/20 13:04:51;;;;;;;4.90;2.30;;;;;;;;;;5034331;28;20459;-76
2020/12/20 13:07:17;;;;;;;4.43;2.28;;;;;;;;;;5035841;28;20041;-75
2020/12/20 13:09:43;;;;;;;4.85;2.45;;;;;;;;;;5032738;28;20510;-75
2020/12/20 13:12:14;;;;;;;6.05;2.55;;;;;;;;;;5036205;28;20045;-75
2020/12/20 13:14:41;;;;;;;6.60;1.88;;;;;;;;;;5032170;28;20053;-75
2020/12/20 13:17:11;;;;;;;4.85;2.45;;;;;;;;;;5031009;28;20132;-76
2020/12/20 13:19:37;;;;;;;4.47;2.15;;;;;;;;;;5031892;28;20127;-75
2020/12/20 13:22:03;;;;;;;5.50;1.80;;;;;;;;;;5033940;28;20407;-76
2020/12/20 13:24:30;;;;;;;5.82;2.00;;;;;;;;;;5040858;28;20053;-75
2020/12/20 13:27:07;;;;;;;4.07;2.20;;;;;;;;;;5031831;28;20506;-76
2020/12/20 13:29:34;;;;;;;6.22;2.40;;;;;;;;;;5032102;28;20080;-76
2020/12/20 13:32:00;;;;;;;5.07;2.47;;;;;;;;;;5033873;28;20076;-75
2020/12/20 13:34:26;;;;;;;4.82;1.98;;;;;;;;;;5041510;28;20061;-76
2020/12/20 13:36:53;;;;;;;5.72;2.05;;;;;;;;;;5041116;28;20051;-75
2020/12/20 13:39:19;;;;;;;6.55;2.35;;;;;;;;;;5037032;28;20385;-83
2020/12/20 13:41:52;;;;;;;6.25;2.30;;;;;;;;;;5038736;28;20053;-83
2020/12/20 13:44:18;;;;;;;7.65;2.67;;;;;;;;;;5031119;28;20176;-83
2020/12/20 13:46:50;;;;;;;4.03;2.05;;;;;;;;;;5033849;28;20049;-83
2020/12/20 13:49:17;;;;;;;4.60;2.15;;;;;;;;;;5036246;28;20053;-82
2020/12/20 13:51:53;;;;;;;7.90;3.60;;;;;;;;;;5039866;28;20407;-83
2020/12/20 13:54:23;;;;;;;4.43;2.27;;;;;;;;;;5039641;28;20045;-83
2020/12/20 13:56:49;;;;;;;5.95;2.72;;;;;;;;;;5041552;28;20068;-83
2020/12/20 13:59:18;;;;;;;6.82;2.42;;;;;;;;;;5035532;28;20050;-83
2020/12/20 14:01:49;;;;;;;6.50;2.78;;;;;;;;;;5037922;28;20052;-82
2020/12/20 14:04:15;;;;;;;5.78;2.72;;;;;;;;;;5034685;28;20049;-82
2020/12/20 14:06:42;;;;;;;5.82;2.33;;;;;;;;;;5036698;28;20041;-82
2020/12/20 14:09:09;;;;;;;3.80;1.67;;;;;;;;;;5045491;28;20067;-81
2020/12/20 14:11:38;;;;;;;;;;;;;;;;;;5038621;28;20117;-81
2020/12/20 14:14:04;;;;;;;4.80;2.40;;;;;;;;;;5037396;28;20019;-82
2020/12/20 14:16:30;;;;;;;6.10;2.03;;;;;;;;;;5034209;28;20053;-82
2020/12/20 14:18:56;;;;;;;4.82;2.72;;;;;;;;;;5037361;28;20041;-82
2020/12/20 14:21:25;;;;;;;6.20;2.92;;;;;;;;;;5038820;28;20079;-81
2020/12/20 14:23:52;;;;;;;3.80;2.00;;;;;;;;;;5035240;28;20140;-82
2020/12/20 14:26:18;;;;;;;5.90;1.90;;;;;;;;;;5034645;28;20041;-80
2020/12/20 14:28:45;;;;;;;6.13;2.35;;;;;;;;;;5035124;28;20053;-79
2020/12/20 14:31:11;;;;;;;6.85;3.17;;;;;;;;;;5037571;28;20132;-80
2020/12/20 14:33:41;;;;;;;5.63;2.40;;;;;;;;;;5038459;28;20050;-80
2020/12/20 14:36:09;;;;;;;7.40;3.55;;;;;;;;;;5041091;28;20046;-81
2020/12/20 14:38:35;;;;;;;5.65;2.78;;;;;;;;;;5031849;28;20049;-80
2020/12/20 14:41:10;;;;;;;7.07;3.30;;;;;;;;;;5030353;28;20487;-75
2020/12/20 14:43:39;;;;;;;10.23;3.25;;;;;;;;;;5042948;28;20103;-76
2020/12/20 14:46:06;;;;;;;9.10;4.10;;;;;;;;;;5031226;28;20045;-77